Livona, North Dakota
Current Conditions -  °F | °C
As of 4:52 AM on Friday 28 Nov 2014 (Local Time) from KBIS Reporting Station
Haze Haze  
Wind Chill: -3°   Ceiling: 300
Heat Index: 10°   Visibility: 4mi
Dew Point:   Wind: 9mph
Humidity: 84%   Direction: 80°E
Pressure: 29.82"   Gusts: NA
Location:  46.7287°N, 100.616°W
Report Text: KBIS 281052Z AUTO 08008KT 4SM BR BKN003 OVC080 M12/M14 A2982 RMK AO2 UPB0956E17 SLP135 P0001 I1000 T11221144
Loading
Personal Weather Stations






























Interactive Weather Map New forecast layout! Learn more

10-Day Weather Forecast

Advertisements
Track Severe Weather on mobile